sensor_id;sensor_type;location;lat;lon;timestamp;pressure;altitude;pressure_sealevel;temperature;humidity
49178;BME280;35016;55.674;37.468;2022-12-05T00:01:37;101822.91;;;-9.63;63.38
49178;BME280;35016;55.674;37.468;2022-12-05T00:04:13;101823.75;;;-9.62;64.15
49178;BME280;35016;55.674;37.468;2022-12-05T00:06:42;101837.66;;;-9.60;63.76
49178;BME280;35016;55.674;37.468;2022-12-05T00:09:11;101831.63;;;-9.62;63.81
49178;BME280;35016;55.674;37.468;2022-12-05T00:11:40;101836.09;;;-9.64;63.94
49178;BME280;35016;55.674;37.468;2022-12-05T00:14:09;101824.97;;;-9.70;63.77
49178;BME280;35016;55.674;37.468;2022-12-05T00:16:38;101824.91;;;-9.68;63.75
49178;BME280;35016;55.674;37.468;2022-12-05T00:19:07;101817.16;;;-9.71;64.11
49178;BME280;35016;55.674;37.468;2022-12-05T00:21:36;101822.28;;;-9.68;63.83
49178;BME280;35016;55.674;37.468;2022-12-05T00:27:21;101823.34;;;-9.72;63.59
49178;BME280;35016;55.674;37.468;2022-12-05T00:29:48;101823.41;;;-9.74;63.80
49178;BME280;35016;55.674;37.468;2022-12-05T00:32:15;101826.03;;;-9.74;64.37
49178;BME280;35016;55.674;37.468;2022-12-05T00:34:43;101814.91;;;-9.79;63.69
49178;BME280;35016;55.674;37.468;2022-12-05T00:37:10;101824.41;;;-9.76;63.99
49178;BME280;35016;55.674;37.468;2022-12-05T00:39:40;101821.78;;;-9.76;64.04
49178;BME280;35016;55.674;37.468;2022-12-05T00:42:07;101811.44;;;-9.79;64.16
49178;BME280;35016;55.674;37.468;2022-12-05T00:44:33;101805.25;;;-9.78;63.76
49178;BME280;35016;55.674;37.468;2022-12-05T00:47:00;101814.97;;;-9.80;63.71
49178;BME280;35016;55.674;37.468;2022-12-05T00:49:27;101804.91;;;-9.89;63.61
49178;BME280;35016;55.674;37.468;2022-12-05T00:52:14;101797.66;;;-9.84;64.20
49178;BME280;35016;55.674;37.468;2022-12-05T00:54:42;101799.44;;;-9.85;64.15
49178;BME280;35016;55.674;37.468;2022-12-05T00:57:09;101794.63;;;-9.94;64.07
49178;BME280;35016;55.674;37.468;2022-12-05T00:59:36;101800.78;;;-9.95;64.38
49178;BME280;35016;55.674;37.468;2022-12-05T01:02:02;101793.84;;;-9.96;63.88
49178;BME280;35016;55.674;37.468;2022-12-05T01:04:29;101806.97;;;-9.96;63.88
49178;BME280;35016;55.674;37.468;2022-12-05T01:06:57;101802.63;;;-9.97;63.70
49178;BME280;35016;55.674;37.468;2022-12-05T01:09:25;101793.22;;;-10.01;63.65
49178;BME280;35016;55.674;37.468;2022-12-05T01:11:52;101791.28;;;-9.97;63.76
49178;BME280;35016;55.674;37.468;2022-12-05T01:14:21;101793.22;;;-10.01;64.41
49178;BME280;35016;55.674;37.468;2022-12-05T01:16:50;101790.81;;;-10.06;64.25
49178;BME280;35016;55.674;37.468;2022-12-05T01:19:22;101782.09;;;-10.06;64.24
49178;BME280;35016;55.674;37.468;2022-12-05T01:21:49;101777.84;;;-10.09;64.59
49178;BME280;35016;55.674;37.468;2022-12-05T01:24:18;101776.75;;;-10.05;64.53
49178;BME280;35016;55.674;37.468;2022-12-05T01:26:46;101772.22;;;-10.01;64.37
49178;BME280;35016;55.674;37.468;2022-12-05T01:29:15;101760.09;;;-10.04;64.59
49178;BME280;35016;55.674;37.468;2022-12-05T01:31:44;101761.88;;;-10.04;64.43
49178;BME280;35016;55.674;37.468;2022-12-05T01:34:13;101757.47;;;-10.04;63.76
49178;BME280;35016;55.674;37.468;2022-12-05T01:36:41;101749.75;;;-10.07;64.13
49178;BME280;35016;55.674;37.468;2022-12-05T01:39:10;101747.84;;;-10.03;64.42
49178;BME280;35016;55.674;37.468;2022-12-05T01:41:43;101748.13;;;-10.09;64.36
49178;BME280;35016;55.674;37.468;2022-12-05T01:46:49;101743.72;;;-10.09;63.96
49178;BME280;35016;55.674;37.468;2022-12-05T01:49:25;101749.13;;;-10.12;64.40
49178;BME280;35016;55.674;37.468;2022-12-05T01:51:58;101746.50;;;-10.12;64.58
49178;BME280;35016;55.674;37.468;2022-12-05T01:54:28;101744.84;;;-10.14;64.48
49178;BME280;35016;55.674;37.468;2022-12-05T01:57:00;101742.09;;;-10.11;63.97
49178;BME280;35016;55.674;37.468;2022-12-05T01:59:32;101735.09;;;-10.11;64.40
49178;BME280;35016;55.674;37.468;2022-12-05T02:02:00;101755.06;;;-10.08;64.53
49178;BME280;35016;55.674;37.468;2022-12-05T02:04:27;101746.44;;;-10.10;64.38
49178;BME280;35016;55.674;37.468;2022-12-05T02:06:56;101751.75;;;-10.12;64.41
49178;BME280;35016;55.674;37.468;2022-12-05T02:09:23;101735.19;;;-10.14;64.18
49178;BME280;35016;55.674;37.468;2022-12-05T02:11:53;101756.84;;;-10.09;64.06
49178;BME280;35016;55.674;37.468;2022-12-05T02:31:50;101748.31;;;-10.14;63.71
49178;BME280;35016;55.674;37.468;2022-12-05T02:36:56;101727.47;;;-10.17;64.24
49178;BME280;35016;55.674;37.468;2022-12-05T02:42:48;101724.78;;;-10.15;64.31
49178;BME280;35016;55.674;37.468;2022-12-05T02:45:18;101710.03;;;-10.18;63.74
49178;BME280;35016;55.674;37.468;2022-12-05T02:47:50;101715.16;;;-10.15;64.11
49178;BME280;35016;55.674;37.468;2022-12-05T02:50:22;101715.28;;;-10.18;63.93
49178;BME280;35016;55.674;37.468;2022-12-05T02:52:53;101724.94;;;-10.18;64.53
49178;BME280;35016;55.674;37.468;2022-12-05T02:55:23;101709.38;;;-10.21;64.21
49178;BME280;35016;55.674;37.468;2022-12-05T02:57:55;101719.09;;;-10.23;63.97
49178;BME280;35016;55.674;37.468;2022-12-05T03:00:24;101701.66;;;-10.24;64.20
49178;BME280;35016;55.674;37.468;2022-12-05T03:02:55;101696.34;;;-10.23;63.75
49178;BME280;35016;55.674;37.468;2022-12-05T03:05:48;101702.50;;;-10.24;64.43
49178;BME280;35016;55.674;37.468;2022-12-05T03:08:21;101698.47;;;-10.31;64.30
49178;BME280;35016;55.674;37.468;2022-12-05T03:10:50;101687.06;;;-10.30;64.06
49178;BME280;35016;55.674;37.468;2022-12-05T03:13:26;101688.06;;;-10.33;63.94
49178;BME280;35016;55.674;37.468;2022-12-05T03:15:59;101703.72;;;-10.31;64.17
49178;BME280;35016;55.674;37.468;2022-12-05T03:18:31;101689.84;;;-10.33;64.35
49178;BME280;35016;55.674;37.468;2022-12-05T03:21:18;101704.72;;;-10.34;64.43
49178;BME280;35016;55.674;37.468;2022-12-05T03:23:59;101693.53;;;-10.37;63.88
49178;BME280;35016;55.674;37.468;2022-12-05T03:37:55;101681.59;;;-10.44;64.19
49178;BME280;35016;55.674;37.468;2022-12-05T03:43:18;101674.88;;;-10.50;64.42
49178;BME280;35016;55.674;37.468;2022-12-05T03:45:57;101673.19;;;-10.51;64.42
49178;BME280;35016;55.674;37.468;2022-12-05T03:48:31;101664.59;;;-10.54;64.38
49178;BME280;35016;55.674;37.468;2022-12-05T03:51:04;101666.25;;;-10.52;63.97
49178;BME280;35016;55.674;37.468;2022-12-05T03:54:10;101664.53;;;-10.53;64.20
49178;BME280;35016;55.674;37.468;2022-12-05T03:56:43;101664.47;;;-10.51;64.22
49178;BME280;35016;55.674;37.468;2022-12-05T03:59:33;101678.56;;;-10.54;64.22
49178;BME280;35016;55.674;37.468;2022-12-05T04:02:07;101660.44;;;-10.58;64.32
49178;BME280;35016;55.674;37.468;2022-12-05T04:04:43;101663.19;;;-10.61;64.31
49178;BME280;35016;55.674;37.468;2022-12-05T04:07:14;101655.41;;;-10.63;64.16
49178;BME280;35016;55.674;37.468;2022-12-05T04:09:56;101650.31;;;-10.66;63.95
49178;BME280;35016;55.674;37.468;2022-12-05T04:12:27;101649.25;;;-10.62;64.42
49178;BME280;35016;55.674;37.468;2022-12-05T04:15:03;101646.69;;;-10.64;64.26
49178;BME280;35016;55.674;37.468;2022-12-05T04:18:07;101657.19;;;-10.64;64.36
49178;BME280;35016;55.674;37.468;2022-12-05T04:20:38;101656.34;;;-10.64;63.96
49178;BME280;35016;55.674;37.468;2022-12-05T04:23:26;101651.22;;;-10.67;64.58
49178;BME280;35016;55.674;37.468;2022-12-05T04:26:12;101647.03;;;-10.71;64.32
49178;BME280;35016;55.674;37.468;2022-12-05T04:29:07;101636.75;;;-10.76;64.23
49178;BME280;35016;55.674;37.468;2022-12-05T04:31:41;101637.53;;;-10.74;64.01
49178;BME280;35016;55.674;37.468;2022-12-05T04:34:11;101640.09;;;-10.72;64.08
49178;BME280;35016;55.674;37.468;2022-12-05T04:36:53;101638.47;;;-10.75;64.35
49178;BME280;35016;55.674;37.468;2022-12-05T04:39:35;101623.81;;;-10.79;64.61
49178;BME280;35016;55.674;37.468;2022-12-05T04:42:06;101629.50;;;-10.69;64.56
49178;BME280;35016;55.674;37.468;2022-12-05T04:44:43;101625.94;;;-10.68;64.40
49178;BME280;35016;55.674;37.468;2022-12-05T04:47:13;101629.69;;;-10.74;64.59
49178;BME280;35016;55.674;37.468;2022-12-05T04:49:44;101619.00;;;-10.69;64.23
49178;BME280;35016;55.674;37.468;2022-12-05T04:52:20;101619.00;;;-10.69;64.05
49178;BME280;35016;55.674;37.468;2022-12-05T05:00:16;101607.72;;;-10.71;64.45
49178;BME280;35016;55.674;37.468;2022-12-05T05:02:53;101610.50;;;-10.74;64.25
49178;BME280;35016;55.674;37.468;2022-12-05T05:05:22;101613.97;;;-10.74;64.41
49178;BME280;35016;55.674;37.468;2022-12-05T05:07:52;101611.34;;;-10.74;64.24
49178;BME280;35016;55.674;37.468;2022-12-05T05:10:30;101607.94;;;-10.76;64.29
49178;BME280;35016;55.674;37.468;2022-12-05T05:13:04;101601.72;;;-10.73;64.50
49178;BME280;35016;55.674;37.468;2022-12-05T05:15:31;101612.19;;;-10.73;64.79
49178;BME280;35016;55.674;37.468;2022-12-05T05:17:57;101606.09;;;-10.74;64.84
49178;BME280;35016;55.674;37.468;2022-12-05T05:20:25;101610.56;;;-10.76;64.30
49178;BME280;35016;55.674;37.468;2022-12-05T05:22:54;101614.88;;;-10.75;64.36
49178;BME280;35016;55.674;37.468;2022-12-05T05:25:23;101627.97;;;-10.75;63.91
49178;BME280;35016;55.674;37.468;2022-12-05T05:27:52;101621.75;;;-10.72;64.67
49178;BME280;35016;55.674;37.468;2022-12-05T05:30:21;101622.53;;;-10.70;64.17
49178;BME280;35016;55.674;37.468;2022-12-05T05:32:49;101621.56;;;-10.68;64.26
49178;BME280;35016;55.674;37.468;2022-12-05T05:35:16;101618.78;;;-10.65;64.68
49178;BME280;35016;55.674;37.468;2022-12-05T05:37:44;101613.47;;;-10.63;64.33
49178;BME280;35016;55.674;37.468;2022-12-05T05:40:12;101613.47;;;-10.63;64.02
49178;BME280;35016;55.674;37.468;2022-12-05T05:42:48;101605.41;;;-10.58;64.41
49178;BME280;35016;55.674;37.468;2022-12-05T05:45:16;101597.38;;;-10.55;64.57
49178;BME280;35016;55.674;37.468;2022-12-05T05:47:47;101590.38;;;-10.55;64.69
49178;BME280;35016;55.674;37.468;2022-12-05T05:50:16;101604.94;;;-10.49;64.65
49178;BME280;35016;55.674;37.468;2022-12-05T05:52:48;101582.97;;;-10.47;64.09
49178;BME280;35016;55.674;37.468;2022-12-05T05:55:15;101590.63;;;-10.42;64.51
49178;BME280;35016;55.674;37.468;2022-12-05T05:57:42;101593.97;;;-10.39;64.09
49178;BME280;35016;55.674;37.468;2022-12-05T06:00:10;101598.06;;;-10.33;64.63
49178;BME280;35016;55.674;37.468;2022-12-05T06:02:43;101592.81;;;-10.33;64.01
49178;BME280;35016;55.674;37.468;2022-12-05T06:05:10;101598.75;;;-10.29;64.38
49178;BME280;35016;55.674;37.468;2022-12-05T06:07:37;101595.22;;;-10.28;64.60
49178;BME280;35016;55.674;37.468;2022-12-05T06:10:14;101596.84;;;-10.26;64.01
49178;BME280;35016;55.674;37.468;2022-12-05T06:12:41;101590.59;;;-10.23;64.27
49178;BME280;35016;55.674;37.468;2022-12-05T06:15:09;101591.44;;;-10.23;64.12
49178;BME280;35016;55.674;37.468;2022-12-05T06:17:36;101592.09;;;-10.19;64.12
49178;BME280;35016;55.674;37.468;2022-12-05T06:20:06;101597.19;;;-10.16;64.09
49178;BME280;35016;55.674;37.468;2022-12-05T06:22:34;101597.88;;;-10.13;64.33
49178;BME280;35016;55.674;37.468;2022-12-05T06:25:01;101588.97;;;-10.09;64.25
49178;BME280;35016;55.674;37.468;2022-12-05T06:27:29;101584.34;;;-10.04;63.92
49178;BME280;35016;55.674;37.468;2022-12-05T06:29:59;101575.31;;;-9.98;63.38
49178;BME280;35016;55.674;37.468;2022-12-05T06:32:27;101582.94;;;-9.93;63.88
49178;BME280;35016;55.674;37.468;2022-12-05T06:34:59;101587.09;;;-9.89;63.54
49178;BME280;35016;55.674;37.468;2022-12-05T06:37:27;101592.19;;;-9.86;63.86
49178;BME280;35016;55.674;37.468;2022-12-05T06:39:53;101588.63;;;-9.85;63.69
49178;BME280;35016;55.674;37.468;2022-12-05T06:42:21;101586.72;;;-9.82;63.11
49178;BME280;35016;55.674;37.468;2022-12-05T06:44:48;101584.03;;;-9.80;63.49
49178;BME280;35016;55.674;37.468;2022-12-05T06:47:15;101590.75;;;-9.75;63.58
49178;BME280;35016;55.674;37.468;2022-12-05T06:49:45;101589.66;;;-9.71;63.74
49178;BME280;35016;55.674;37.468;2022-12-05T06:52:12;101582.47;;;-9.67;63.73
49178;BME280;35016;55.674;37.468;2022-12-05T06:54:42;101573.56;;;-9.64;63.31
49178;BME280;35016;55.674;37.468;2022-12-05T06:57:17;101568.94;;;-9.59;63.14
49178;BME280;35016;55.674;37.468;2022-12-05T06:59:44;101565.22;;;-9.55;63.12
49178;BME280;35016;55.674;37.468;2022-12-05T07:02:12;101576.50;;;-9.53;63.55
49178;BME280;35016;55.674;37.468;2022-12-05T07:04:39;101599.34;;;-9.55;63.20
49178;BME280;35016;55.674;37.468;2022-12-05T07:07:08;101589.00;;;-9.58;63.38
49178;BME280;35016;55.674;37.468;2022-12-05T07:09:35;101583.16;;;-9.63;63.59
49178;BME280;35016;55.674;37.468;2022-12-05T07:12:22;101574.59;;;-9.67;63.47
49178;BME280;35016;55.674;37.468;2022-12-05T07:14:49;101577.13;;;-9.65;63.59
49178;BME280;35016;55.674;37.468;2022-12-05T07:17:18;101580.38;;;-9.60;63.14
49178;BME280;35016;55.674;37.468;2022-12-05T07:19:49;101580.38;;;-9.60;63.05
49178;BME280;35016;55.674;37.468;2022-12-05T07:22:17;101586.00;;;-9.51;63.28
49178;BME280;35016;55.674;37.468;2022-12-05T07:24:45;101576.97;;;-9.45;63.71
49178;BME280;35016;55.674;37.468;2022-12-05T07:27:15;101569.69;;;-9.40;63.63
49178;BME280;35016;55.674;37.468;2022-12-05T07:29:48;101571.22;;;-9.36;62.66
49178;BME280;35016;55.674;37.468;2022-12-05T07:32:17;101568.41;;;-9.33;63.24
49178;BME280;35016;55.674;37.468;2022-12-05T07:34:44;101567.41;;;-9.30;62.93
49178;BME280;35016;55.674;37.468;2022-12-05T07:37:13;101562.84;;;-9.27;63.38
49178;BME280;35016;55.674;37.468;2022-12-05T07:39:40;101576.50;;;-9.20;63.46
49178;BME280;35016;55.674;37.468;2022-12-05T07:42:07;101556.19;;;-9.17;63.68
49178;BME280;35016;55.674;37.468;2022-12-05T07:44:34;101563.72;;;-9.11;63.68
49178;BME280;35016;55.674;37.468;2022-12-05T07:47:02;101553.13;;;-9.09;63.17
49178;BME280;35016;55.674;37.468;2022-12-05T07:49:34;101546.25;;;-9.12;63.10
49178;BME280;35016;55.674;37.468;2022-12-05T07:52:01;101551.00;;;-9.02;62.59
49178;BME280;35016;55.674;37.468;2022-12-05T07:54:31;101548.00;;;-8.95;63.30
49178;BME280;35016;55.674;37.468;2022-12-05T07:56:58;101556.47;;;-8.90;63.07
49178;BME280;35016;55.674;37.468;2022-12-05T07:59:25;101550.94;;;-8.85;62.65
49178;BME280;35016;55.674;37.468;2022-12-05T08:01:55;101549.66;;;-8.78;62.44
49178;BME280;35016;55.674;37.468;2022-12-05T08:04:22;101544.75;;;-8.84;62.82
49178;BME280;35016;55.674;37.468;2022-12-05T08:06:49;101542.19;;;-8.70;62.62
49178;BME280;35016;55.674;37.468;2022-12-05T08:09:16;101536.44;;;-8.77;62.25
49178;BME280;35016;55.674;37.468;2022-12-05T08:11:44;101517.13;;;-8.91;62.39
49178;BME280;35016;55.674;37.468;2022-12-05T08:14:18;101536.78;;;-8.83;62.37
49178;BME280;35016;55.674;37.468;2022-12-05T08:16:45;101535.84;;;-8.82;62.35
49178;BME280;35016;55.674;37.468;2022-12-05T08:19:12;101520.25;;;-8.85;62.64
49178;BME280;35016;55.674;37.468;2022-12-05T08:21:42;101534.25;;;-8.84;62.76
49178;BME280;35016;55.674;37.468;2022-12-05T08:24:10;101525.94;;;-8.77;62.97
49178;BME280;35016;55.674;37.468;2022-12-05T08:26:37;101509.72;;;-8.69;61.93
49178;BME280;35016;55.674;37.468;2022-12-05T08:29:09;101512.78;;;-8.61;61.64
49178;BME280;35016;55.674;37.468;2022-12-05T08:31:45;101541.09;;;-8.50;61.85
49178;BME280;35016;55.674;37.468;2022-12-05T08:34:14;101510.09;;;-8.45;62.12
49178;BME280;35016;55.674;37.468;2022-12-05T08:36:42;101510.69;;;-8.40;62.47
49178;BME280;35016;55.674;37.468;2022-12-05T08:39:12;101502.16;;;-8.29;62.41
49178;BME280;35016;55.674;37.468;2022-12-05T08:41:44;101501.69;;;-8.22;61.92
49178;BME280;35016;55.674;37.468;2022-12-05T08:44:13;101500.13;;;-8.10;61.95
49178;BME280;35016;55.674;37.468;2022-12-05T08:46:47;101493.41;;;-8.00;62.02
49178;BME280;35016;55.674;37.468;2022-12-05T08:49:15;101501.47;;;-7.89;61.14
49178;BME280;35016;55.674;37.468;2022-12-05T08:51:45;101503.50;;;-7.78;61.85
49178;BME280;35016;55.674;37.468;2022-12-05T08:54:15;101501.72;;;-7.77;61.65
49178;BME280;35016;55.674;37.468;2022-12-05T08:56:42;101506.59;;;-7.57;61.04
49178;BME280;35016;55.674;37.468;2022-12-05T08:59:09;101492.78;;;-7.46;61.75
49178;BME280;35016;55.674;37.468;2022-12-05T09:01:36;101488.72;;;-7.38;61.01
49178;BME280;35016;55.674;37.468;2022-12-05T09:04:06;101490.78;;;-7.29;60.56
49178;BME280;35016;55.674;37.468;2022-12-05T09:06:36;101482.56;;;-7.24;60.50
49178;BME280;35016;55.674;37.468;2022-12-05T09:09:07;101480.63;;;-7.21;60.23
49178;BME280;35016;55.674;37.468;2022-12-05T09:11:42;101477.69;;;-7.16;60.31
49178;BME280;35016;55.674;37.468;2022-12-05T09:14:15;101480.88;;;-7.11;60.71
49178;BME280;35016;55.674;37.468;2022-12-05T09:16:43;101471.47;;;-7.15;60.48
49178;BME280;35016;55.674;37.468;2022-12-05T09:19:18;101472.22;;;-7.13;60.11
49178;BME280;35016;55.674;37.468;2022-12-05T09:21:50;101463.13;;;-7.22;60.47
49178;BME280;35016;55.674;37.468;2022-12-05T09:24:18;101459.81;;;-7.25;60.76
49178;BME280;35016;55.674;37.468;2022-12-05T09:26:47;101462.72;;;-7.30;61.00
49178;BME280;35016;55.674;37.468;2022-12-05T09:29:15;101453.88;;;-7.29;60.58
49178;BME280;35016;55.674;37.468;2022-12-05T09:31:46;101459.91;;;-7.27;60.45
49178;BME280;35016;55.674;37.468;2022-12-05T09:34:13;101460.28;;;-7.19;60.90
49178;BME280;35016;55.674;37.468;2022-12-05T09:36:41;101443.88;;;-7.09;60.49
49178;BME280;35016;55.674;37.468;2022-12-05T09:39:11;101444.50;;;-7.06;60.17
49178;BME280;35016;55.674;37.468;2022-12-05T09:47:31;101426.97;;;-6.93;59.66
49178;BME280;35016;55.674;37.468;2022-12-05T09:53:38;101446.19;;;-6.91;59.50
49178;BME280;35016;55.674;37.468;2022-12-05T09:56:29;101401.50;;;-7.06;60.01
49178;BME280;35016;55.674;37.468;2022-12-05T09:58:57;101387.38;;;-7.05;60.08
49178;BME280;35016;55.674;37.468;2022-12-05T10:01:39;101404.00;;;-6.91;59.51
49178;BME280;35016;55.674;37.468;2022-12-05T10:15:28;101398.75;;;-6.65;59.07
49178;BME280;35016;55.674;37.468;2022-12-05T10:18:31;101396.13;;;-6.65;58.99
49178;BME280;35016;55.674;37.468;2022-12-05T10:22:03;101396.91;;;-6.63;59.25
49178;BME280;35016;55.674;37.468;2022-12-05T10:24:30;101396.91;;;-6.63;59.45
49178;BME280;35016;55.674;37.468;2022-12-05T10:27:01;101392.34;;;-6.61;59.82
49178;BME280;35016;55.674;37.468;2022-12-05T10:32:30;101386.78;;;-6.57;58.98
49178;BME280;35016;55.674;37.468;2022-12-05T10:35:26;101382.66;;;-6.61;59.33
49178;BME280;35016;55.674;37.468;2022-12-05T10:38:01;101379.16;;;-6.61;59.39
49178;BME280;35016;55.674;37.468;2022-12-05T10:40:36;101376.91;;;-6.67;59.49
49178;BME280;35016;55.674;37.468;2022-12-05T10:43:09;101367.31;;;-6.68;60.03
49178;BME280;35016;55.674;37.468;2022-12-05T10:45:46;101384.00;;;-6.68;59.51
49178;BME280;35016;55.674;37.468;2022-12-05T10:48:16;101382.03;;;-6.64;59.59
49178;BME280;35016;55.674;37.468;2022-12-05T10:50:45;101390.38;;;-6.58;59.76
49178;BME280;35016;55.674;37.468;2022-12-05T10:53:17;101391.53;;;-6.62;59.68
49178;BME280;35016;55.674;37.468;2022-12-05T10:55:47;101370.53;;;-6.63;59.64
49178;BME280;35016;55.674;37.468;2022-12-05T10:58:36;101388.03;;;-6.62;59.50
49178;BME280;35016;55.674;37.468;2022-12-05T11:01:09;101385.03;;;-6.70;59.35
49178;BME280;35016;55.674;37.468;2022-12-05T11:03:41;101394.25;;;-6.63;59.53
49178;BME280;35016;55.674;37.468;2022-12-05T11:06:17;101382.66;;;-6.61;58.83
49178;BME280;35016;55.674;37.468;2022-12-05T11:08:52;101379.38;;;-6.64;58.96
49178;BME280;35016;55.674;37.468;2022-12-05T11:11:35;101376.06;;;-6.68;59.74
49178;BME280;35016;55.674;37.468;2022-12-05T11:14:05;101379.75;;;-6.70;59.33
49178;BME280;35016;55.674;37.468;2022-12-05T11:16:38;101379.97;;;-6.73;59.32
49178;BME280;35016;55.674;37.468;2022-12-05T11:21:48;101377.75;;;-6.79;59.45
49178;BME280;35016;55.674;37.468;2022-12-05T11:24:26;101378.81;;;-6.82;59.32
49178;BME280;35016;55.674;37.468;2022-12-05T11:27:00;101358.00;;;-6.87;59.16
49178;BME280;35016;55.674;37.468;2022-12-05T11:32:32;101362.00;;;-6.94;59.66
49178;BME280;35016;55.674;37.468;2022-12-05T11:43:32;101365.84;;;-7.12;58.93
49178;BME280;35016;55.674;37.468;2022-12-05T12:00:21;101335.81;;;-7.36;59.91
49178;BME280;35016;55.674;37.468;2022-12-05T12:25:22;101305.00;;;-7.48;59.45
49178;BME280;35016;55.674;37.468;2022-12-05T12:28:31;101289.38;;;-7.52;59.02
49178;BME280;35016;55.674;37.468;2022-12-05T12:37:12;101280.69;;;-7.66;59.09
49178;BME280;35016;55.674;37.468;2022-12-05T12:39:57;101286.34;;;-7.72;59.10
49178;BME280;35016;55.674;37.468;2022-12-05T12:42:32;101281.19;;;-7.74;60.24
49178;BME280;35016;55.674;37.468;2022-12-05T12:50:33;101276.56;;;-7.85;59.90
49178;BME280;35016;55.674;37.468;2022-12-05T13:07:03;101267.69;;;-7.96;59.31
49178;BME280;35016;55.674;37.468;2022-12-05T13:09:59;101262.63;;;-7.99;59.82
49178;BME280;35016;55.674;37.468;2022-12-05T13:12:35;101264.69;;;-8.04;60.01
49178;BME280;35016;55.674;37.468;2022-12-05T13:15:11;101258.69;;;-8.06;60.17
49178;BME280;35016;55.674;37.468;2022-12-05T13:17:42;101263.75;;;-8.03;59.55
49178;BME280;35016;55.674;37.468;2022-12-05T13:20:33;101262.91;;;-8.04;60.36
49178;BME280;35016;55.674;37.468;2022-12-05T13:23:06;101262.06;;;-8.04;59.83
49178;BME280;35016;55.674;37.468;2022-12-05T13:25:38;101259.63;;;-8.07;60.43
49178;BME280;35016;55.674;37.468;2022-12-05T13:28:33;101255.97;;;-8.05;60.41
49178;BME280;35016;55.674;37.468;2022-12-05T13:31:09;101254.28;;;-8.06;60.48
49178;BME280;35016;55.674;37.468;2022-12-05T13:33:45;101239.59;;;-8.10;60.47
49178;BME280;35016;55.674;37.468;2022-12-05T13:36:18;101248.06;;;-8.05;60.51
49178;BME280;35016;55.674;37.468;2022-12-05T13:39:20;101255.97;;;-8.05;60.12
49178;BME280;35016;55.674;37.468;2022-12-05T13:42:22;101253.31;;;-8.05;59.86
49178;BME280;35016;55.674;37.468;2022-12-05T13:45:04;101242.69;;;-8.03;60.44
49178;BME280;35016;55.674;37.468;2022-12-05T13:53:03;101230.09;;;-8.13;60.69
49178;BME280;35016;55.674;37.468;2022-12-05T13:55:38;101234.72;;;-8.16;60.38
49178;BME280;35016;55.674;37.468;2022-12-05T14:00:47;101221.28;;;-8.12;59.90
49178;BME280;35016;55.674;37.468;2022-12-05T14:05:52;101230.00;;;-8.11;60.98
49178;BME280;35016;55.674;37.468;2022-12-05T14:19:29;101201.97;;;-7.98;59.36
49178;BME280;35016;55.674;37.468;2022-12-05T14:22:18;101206.19;;;-7.95;59.72
49178;BME280;35016;55.674;37.468;2022-12-05T14:24:57;101203.25;;;-7.91;60.82
49178;BME280;35016;55.674;37.468;2022-12-05T14:30:35;101208.53;;;-7.91;60.47
49178;BME280;35016;55.674;37.468;2022-12-05T14:33:01;101212.41;;;-7.96;60.66
49178;BME280;35016;55.674;37.468;2022-12-05T14:35:31;101192.94;;;-7.94;60.53
49178;BME280;35016;55.674;37.468;2022-12-05T14:38:32;101193.38;;;-7.87;60.40
49178;BME280;35016;55.674;37.468;2022-12-05T14:41:23;101179.91;;;-7.83;60.11
49178;BME280;35016;55.674;37.468;2022-12-05T14:43:54;101180.84;;;-7.84;60.26
49178;BME280;35016;55.674;37.468;2022-12-05T14:46:29;101186.03;;;-7.82;59.93
49178;BME280;35016;55.674;37.468;2022-12-05T14:50:20;101178.22;;;-7.84;59.47
49178;BME280;35016;55.674;37.468;2022-12-05T14:52:18;101175.78;;;-7.87;60.69
49178;BME280;35016;55.674;37.468;2022-12-05T14:54:50;101164.41;;;-7.87;60.35
49178;BME280;35016;55.674;37.468;2022-12-05T14:57:19;101161.88;;;-7.89;60.58
49178;BME280;35016;55.674;37.468;2022-12-05T14:59:54;101171.56;;;-7.89;60.44
49178;BME280;35016;55.674;37.468;2022-12-05T15:02:24;101168.09;;;-7.90;60.20
49178;BME280;35016;55.674;37.468;2022-12-05T15:08:02;101166.41;;;-7.91;60.63
49178;BME280;35016;55.674;37.468;2022-12-05T15:10:35;101158.41;;;-7.89;59.81
49178;BME280;35016;55.674;37.468;2022-12-05T15:13:12;101154.84;;;-7.88;59.79
49178;BME280;35016;55.674;37.468;2022-12-05T15:16:05;101162.72;;;-7.88;59.90
49178;BME280;35016;55.674;37.468;2022-12-05T15:18:37;101145.16;;;-7.88;60.82
49178;BME280;35016;55.674;37.468;2022-12-05T15:26:26;101139.25;;;-7.91;59.83
49178;BME280;35016;55.674;37.468;2022-12-05T15:34:43;101137.56;;;-7.92;60.58
49178;BME280;35016;55.674;37.468;2022-12-05T15:42:42;101135.34;;;-7.98;60.03
49178;BME280;35016;55.674;37.468;2022-12-05T15:47:44;101131.03;;;-7.99;60.52
49178;BME280;35016;55.674;37.468;2022-12-05T15:58:40;101117.66;;;-7.96;60.82
49178;BME280;35016;55.674;37.468;2022-12-05T16:01:13;101112.59;;;-7.99;60.55
49178;BME280;35016;55.674;37.468;2022-12-05T16:03:46;101113.44;;;-7.99;60.25
49178;BME280;35016;55.674;37.468;2022-12-05T16:09:15;101113.75;;;-8.03;60.94
49178;BME280;35016;55.674;37.468;2022-12-05T16:11:51;101118.38;;;-8.07;60.02
49178;BME280;35016;55.674;37.468;2022-12-05T16:14:19;101108.00;;;-8.10;61.11
49178;BME280;35016;55.674;37.468;2022-12-05T16:17:13;101100.31;;;-8.13;60.60
49178;BME280;35016;55.674;37.468;2022-12-05T16:19:41;101106.44;;;-8.13;60.58
49178;BME280;35016;55.674;37.468;2022-12-05T16:24:44;101116.13;;;-8.13;60.83
49178;BME280;35016;55.674;37.468;2022-12-05T16:29:42;101079.59;;;-8.18;61.01
49178;BME280;35016;55.674;37.468;2022-12-05T16:32:20;101085.47;;;-8.14;60.30
49178;BME280;35016;55.674;37.468;2022-12-05T16:34:49;101090.66;;;-8.13;60.83
49178;BME280;35016;55.674;37.468;2022-12-05T16:37:35;101077.47;;;-8.13;60.25